Time;durP1;ratioP1;P1;durP2;ratioP2;P2;SDS_P1;SDS_P2;PMS_P1;PMS_P2;Temp;Humidity;BMP_temperature;BMP_pressure;BME280_temperature;BME280_humidity;BME280_pressure;Samples;Min_cycle;Max_cycle;Signal;HPM_P1;HPM_P2
2022/09/20 00:01:11;;;;;;;12.73;2.80;;;;;;;8.24;100.00;101196.25;5041506;28;20056;-82
2022/09/20 00:03:41;;;;;;;5.78;2.00;;;;;;;8.20;100.00;101204.00;5024811;28;20504;-81
2022/09/20 00:06:12;;;;;;;4.45;1.73;;;;;;;8.23;100.00;101206.69;5025168;28;20629;-81
2022/09/20 00:08:39;;;;;;;10.27;2.10;;;;;;;8.24;100.00;101211.03;5030077;28;20067;-82
2022/09/20 00:11:20;;;;;;;9.10;1.85;;;;;;;8.21;100.00;101197.94;5054436;28;20048;-83
2022/09/20 00:13:50;;;;;;;9.75;1.88;;;;;;;8.15;100.00;101205.72;5023222;28;20049;-81
2022/09/20 00:16:23;;;;;;;8.48;2.08;;;;;;;8.07;100.00;101197.81;5035746;28;20053;-82
2022/09/20 00:18:51;;;;;;;10.75;2.00;;;;;;;8.04;100.00;101206.47;5016163;28;20044;-80
2022/09/20 00:21:22;;;;;;;5.40;1.83;;;;;;;7.99;100.00;101208.19;5025465;28;20049;-82
2022/09/20 00:23:48;;;;;;;6.93;1.60;;;;;;;7.91;100.00;101210.72;5024692;28;21317;-80
2022/09/20 00:26:16;;;;;;;8.20;1.33;;;;;;;7.86;100.00;101201.06;5004457;28;20086;-81
2022/09/20 00:28:46;;;;;;;4.47;1.73;;;;;;;7.84;100.00;101202.81;5023744;28;20041;-81
2022/09/20 00:31:13;;;;;;;7.15;2.10;;;;;;;7.85;100.00;101200.19;5038456;28;20133;-80
2022/09/20 00:36:26;;;;;;;5.45;2.45;;;;;;;7.75;100.00;101199.22;5007573;28;20531;-79
2022/09/20 00:38:58;;;;;;;10.23;3.53;;;;;;;7.70;100.00;101208.72;5024048;28;20740;-80
2022/09/20 00:41:25;;;;;;;9.75;2.63;;;;;;;7.70;100.00;101202.63;5022333;28;20510;-80
2022/09/20 00:43:53;;;;;;;14.80;2.63;;;;;;;7.64;100.00;101202.56;5038007;28;20068;-82
2022/09/20 00:46:30;;;;;;;6.38;1.50;;;;;;;7.69;100.00;101211.28;4989532;28;20672;-82
2022/09/20 00:49:14;;;;;;;10.98;2.20;;;;;;;7.65;100.00;101204.31;5016743;28;20045;-81
2022/09/20 00:51:46;;;;;;;6.65;1.73;;;;;;;7.59;100.00;101205.97;5007123;28;20172;-81
2022/09/20 00:54:16;;;;;;;13.35;2.25;;;;;;;7.55;100.00;101208.53;5024620;28;20056;-80
2022/09/20 00:56:43;;;;;;;7.75;1.88;;;;;;;7.53;100.00;101205.91;5035206;28;20169;-81
2022/09/20 00:59:29;;;;;;;4.30;1.95;;;;;;;7.53;100.00;101210.25;5010692;28;20051;-80
2022/09/20 01:02:07;;;;;;;7.20;2.15;;;;;;;7.48;100.00;101220.59;5013004;28;20851;-80
2022/09/20 01:04:37;;;;;;;5.72;2.15;;;;;;;7.49;100.00;101208.47;5026059;28;20098;-80
2022/09/20 01:07:07;;;;;;;9.40;2.25;;;;;;;7.50;100.00;101216.28;5040136;28;20577;-82
2022/09/20 01:09:34;;;;;;;11.88;2.30;;;;;;;7.46;100.00;101217.13;5006911;28;20068;-80
2022/09/20 01:12:06;;;;;;;10.75;2.30;;;;;;;7.41;100.00;101214.44;5020547;28;20061;-81
2022/09/20 01:14:35;;;;;;;5.75;2.05;;;;;;;7.38;100.00;101217.00;5011705;28;20045;-80
2022/09/20 01:17:04;;;;;;;12.50;2.08;;;;;;;7.36;100.00;101220.44;5026097;28;20163;-80
2022/09/20 01:19:46;;;;;;;12.50;2.10;;;;;;;7.39;100.00;101223.09;5024373;28;20048;-80
2022/09/20 01:22:26;;;;;;;13.55;2.97;;;;;;;7.38;100.00;101216.13;5007920;28;20045;-80
2022/09/20 01:25:15;;;;;;;6.22;1.65;;;;;;;7.35;100.00;101221.28;5006663;28;20122;-81
2022/09/20 01:27:48;;;;;;;11.68;1.95;;;;;;;7.32;100.00;101218.66;5022674;28;20741;-79
2022/09/20 01:30:21;;;;;;;8.18;1.58;;;;;;;7.34;100.00;101220.44;5026629;28;20038;-80
2022/09/20 01:33:14;;;;;;;10.70;3.50;;;;;;;7.41;100.00;101211.81;5039701;28;20052;-81
2022/09/20 01:35:44;;;;;;;9.88;3.30;;;;;;;7.49;100.00;101216.28;5034523;28;20037;-82
2022/09/20 01:38:42;;;;;;;17.05;3.55;;;;;;;7.57;100.00;101215.53;5019694;28;20045;-79
2022/09/20 01:41:39;;;;;;;8.20;2.03;;;;;;;7.62;100.00;101218.16;5005173;28;20048;-80
2022/09/20 01:44:37;;;;;;;7.75;1.98;;;;;;;7.72;100.00;101219.16;5013293;28;20100;-81
2022/09/20 01:47:38;;;;;;;6.68;1.42;;;;;;;7.80;100.00;101217.53;5025278;28;20088;-82
2022/09/20 01:50:20;;;;;;;5.43;1.48;;;;;;;7.83;100.00;101221.91;5025655;28;20044;-80
2022/09/20 01:53:19;;;;;;;6.88;1.60;;;;;;;7.78;100.00;101219.22;5037197;28;20056;-82
2022/09/20 01:56:43;;;;;;;10.00;2.58;;;;;;;7.75;100.00;101211.38;5038332;28;20045;-82
2022/09/20 01:59:45;;;;;;;13.27;2.50;;;;;;;7.61;100.00;101219.91;5022969;28;21326;-80
2022/09/20 02:02:58;;;;;;;5.60;1.65;;;;;;;7.57;100.00;101222.44;5038389;28;20506;-82
2022/09/20 02:05:42;;;;;;;8.45;2.42;;;;;;;7.54;100.00;101218.06;5018160;28;20044;-81
2022/09/20 02:08:54;;;;;;;5.63;1.50;;;;;;;7.53;100.00;101226.75;5018711;28;20053;-80
2022/09/20 02:12:02;;;;;;;6.80;1.55;;;;;;;7.45;100.00;101223.16;5008412;28;20045;-81
2022/09/20 02:14:42;;;;;;;3.65;1.63;;;;;;;7.38;100.00;101226.53;5038421;28;20041;-80
2022/09/20 02:17:40;;;;;;;11.68;1.92;;;;;;;7.34;100.00;101224.75;5019366;28;20504;-80
2022/09/20 02:20:23;;;;;;;4.60;1.30;;;;;;;7.29;100.00;101228.16;5017776;28;20565;-81
2022/09/20 02:23:28;;;;;;;6.03;2.20;;;;;;;7.32;100.00;101235.16;5016702;28;20096;-79
2022/09/20 02:26:07;;;;;;;;;;;;;;;7.25;100.00;101234.19;5013403;28;20046;-79
2022/09/20 02:28:56;;;;;;;9.93;2.28;;;;;;;7.26;100.00;101235.06;5018097;28;19986;-83
2022/09/20 02:31:55;;;;;;;4.40;1.50;;;;;;;7.23;100.00;101240.22;5033171;28;20660;-81
2022/09/20 02:34:42;;;;;;;11.00;2.00;;;;;;;7.20;100.00;101243.66;5011003;28;20759;-80
2022/09/20 02:37:39;;;;;;;5.20;1.73;;;;;;;7.18;100.00;101242.75;4996888;28;20131;-82
2022/09/20 02:40:46;;;;;;;9.13;1.67;;;;;;;7.14;100.00;101235.75;4987275;28;20050;-81
2022/09/20 02:43:43;;;;;;;13.50;2.53;;;;;;;7.08;100.00;101239.16;5004046;28;20807;-82
2022/09/20 02:46:21;;;;;;;6.78;1.80;;;;;;;7.03;100.00;101243.41;5024768;28;20045;-80
2022/09/20 02:49:17;;;;;;;7.18;1.73;;;;;;;7.03;100.00;101243.41;5001682;28;20056;-83
2022/09/20 02:51:56;;;;;;;8.55;1.90;;;;;;;7.11;100.00;101244.41;5017372;28;20042;-80
2022/09/20 02:55:11;;;;;;;7.68;1.80;;;;;;;7.23;100.00;101251.50;5014019;28;20075;-80
2022/09/20 02:57:52;;;;;;;10.63;2.55;;;;;;;7.39;100.00;101241.31;5017734;28;20042;-82
2022/09/20 03:00:34;;;;;;;7.47;1.70;;;;;;;7.47;100.00;101249.22;5020624;28;20037;-82
2022/09/20 03:03:10;;;;;;;6.57;2.28;;;;;;;7.53;100.00;101251.94;5019581;28;21035;-83
2022/09/20 03:05:54;;;;;;;8.38;2.38;;;;;;;7.54;100.00;101238.06;5014446;28;20605;-81
2022/09/20 03:08:44;;;;;;;9.88;2.13;;;;;;;7.52;100.00;101248.47;5034483;28;20057;-82
2022/09/20 03:11:43;;;;;;;7.47;1.90;;;;;;;7.56;100.00;101249.34;4974873;28;20050;-80
2022/09/20 03:14:17;;;;;;;9.73;2.15;;;;;;;7.59;100.00;101247.66;5018234;28;20057;-80
2022/09/20 03:17:41;;;;;;;14.20;2.05;;;;;;;7.60;100.00;101249.44;5015558;28;20057;-81
2022/09/20 03:20:31;;;;;;;3.75;1.30;;;;;;;7.62;100.00;101247.69;4983703;28;20073;-82
2022/09/20 03:23:20;;;;;;;9.80;1.77;;;;;;;7.74;100.00;101246.09;5028346;28;20041;-80
2022/09/20 03:25:57;;;;;;;9.80;1.80;;;;;;;7.85;100.00;101251.44;5012983;28;20484;-80
2022/09/20 03:28:42;;;;;;;5.18;2.28;;;;;;;7.92;100.00;101250.66;4978801;28;20053;-81
2022/09/20 03:31:47;;;;;;;15.90;2.40;;;;;;;7.98;100.00;101253.34;5001290;28;20048;-82
2022/09/20 03:34:41;;;;;;;12.13;3.25;;;;;;;8.04;100.00;101260.38;5001467;28;20565;-80
2022/09/20 03:37:32;;;;;;;7.55;2.55;;;;;;;8.08;100.00;101260.44;5021296;28;20052;-80
2022/09/20 03:40:38;;;;;;;15.05;1.98;;;;;;;8.10;100.00;101252.63;5022987;28;20409;-79
2022/09/20 03:43:49;;;;;;;9.40;2.08;;;;;;;8.11;100.00;101257.84;5027704;28;20049;-82
2022/09/20 03:46:21;;;;;;;7.97;2.63;;;;;;;8.14;100.00;101261.34;5020789;28;20104;-80
2022/09/20 03:49:25;;;;;;;15.85;2.72;;;;;;;8.19;100.00;101259.66;5020570;28;20069;-81
2022/09/20 03:52:48;;;;;;;9.60;2.60;;;;;;;8.23;100.00;101257.09;5020199;28;20128;-81
2022/09/20 03:55:30;;;;;;;7.85;2.15;;;;;;;8.26;100.00;101266.69;5016851;28;20769;-80
2022/09/20 03:58:20;;;;;;;7.97;2.50;;;;;;;8.30;100.00;101265.00;5017835;28;20140;-81
2022/09/20 04:01:36;;;;;;;7.43;2.25;;;;;;;8.35;100.00;101261.56;5024419;28;20053;-82
2022/09/20 04:04:22;;;;;;;4.95;2.08;;;;;;;8.38;100.00;101276.38;5023247;28;20052;-81
2022/09/20 04:07:18;;;;;;;7.10;2.20;;;;;;;8.39;100.00;101279.00;5026590;28;20046;-80
2022/09/20 04:10:25;;;;;;;8.43;2.08;;;;;;;8.42;100.00;101268.59;5031767;28;20046;-83
2022/09/20 04:13:20;;;;;;;6.65;2.60;;;;;;;8.43;100.00;101270.34;5000491;28;20050;-83
2022/09/20 04:16:11;;;;;;;15.32;2.80;;;;;;;8.44;100.00;101272.09;5003656;28;20041;-84
2022/09/20 04:19:03;;;;;;;8.02;2.78;;;;;;;8.42;100.00;101267.72;5035764;28;20106;-80
2022/09/20 04:21:44;;;;;;;6.30;3.05;;;;;;;8.34;100.00;101272.84;5033506;28;20041;-82
2022/09/20 04:24:30;;;;;;;7.90;2.80;;;;;;;8.15;100.00;101279.63;5020738;28;20051;-83
2022/09/20 04:27:12;;;;;;;6.95;3.00;;;;;;;8.05;100.00;101276.00;5055218;28;20307;-80
2022/09/20 04:30:01;;;;;;;18.70;4.20;;;;;;;7.97;100.00;101280.28;5042855;28;20045;-83
2022/09/20 04:32:36;;;;;;;7.38;4.00;;;;;;;8.03;100.00;101282.06;5041352;28;20496;-83
2022/09/20 04:38:30;;;;;;;11.90;3.33;;;;;;;8.25;100.00;101283.19;5048166;28;20069;-82
2022/09/20 04:41:49;;;;;;;12.85;4.93;;;;;;;8.28;100.00;101285.84;5037027;28;20385;-82
2022/09/20 04:45:11;;;;;;;11.73;4.50;;;;;;;8.26;100.00;101293.63;5055793;28;20025;-83
2022/09/20 04:48:10;;;;;;;15.98;4.85;;;;;;;8.18;100.00;101282.25;5050310;28;20040;-82
2022/09/20 04:51:15;;;;;;;13.85;4.10;;;;;;;8.12;100.00;101300.44;5041549;28;20059;-82
2022/09/20 04:54:12;;;;;;;8.73;3.58;;;;;;;8.09;100.00;101297.78;5024673;28;20049;-81
2022/09/20 04:56:58;;;;;;;9.93;4.25;;;;;;;8.11;100.00;101307.38;5012342;28;20052;-82
2022/09/20 05:00:03;;;;;;;10.93;4.78;;;;;;;8.17;100.00;101309.19;5032679;28;20052;-80
2022/09/20 05:03:01;;;;;;;17.88;7.90;;;;;;;8.18;100.00;101304.84;5027642;28;20033;-81
2022/09/20 05:06:24;;;;;;;12.63;4.85;;;;;;;8.20;100.00;101310.94;5041278;28;20045;-81
2022/09/20 05:09:34;;;;;;;14.40;5.68;;;;;;;8.28;100.00;101309.31;5020730;28;20049;-80
2022/09/20 05:12:33;;;;;;;11.52;5.43;;;;;;;8.36;100.00;101314.63;5008649;28;20053;-81
2022/09/20 05:15:22;;;;;;;18.70;5.80;;;;;;;8.39;100.00;101320.72;5039187;28;20052;-80
2022/09/20 05:18:37;;;;;;;15.25;5.85;;;;;;;8.42;100.00;101322.50;5025517;28;20075;-80
2022/09/20 05:21:32;;;;;;;14.90;5.65;;;;;;;8.45;100.00;101319.94;5017902;28;20049;-84
2022/09/20 05:24:31;;;;;;;16.55;6.78;;;;;;;8.47;100.00;101319.97;5019360;28;20072;-80
2022/09/20 05:27:33;;;;;;;17.83;7.45;;;;;;;8.51;100.00;101329.59;5005923;28;20386;-81
2022/09/20 05:30:08;;;;;;;15.30;6.63;;;;;;;8.52;100.00;101329.59;4999831;28;20492;-80
2022/09/20 05:32:48;;;;;;;14.10;6.63;;;;;;;8.53;100.00;101336.56;5023761;28;20120;-79
2022/09/20 05:35:30;;;;;;;9.60;5.80;;;;;;;8.57;100.00;101340.09;5025583;28;20046;-83
2022/09/20 05:38:20;;;;;;;13.25;5.57;;;;;;;8.61;100.00;101339.25;5027182;28;20054;-82
2022/09/20 05:41:24;;;;;;;12.57;4.75;;;;;;;8.65;100.00;101340.19;5026599;28;20041;-79
2022/09/20 05:44:02;;;;;;;13.02;5.35;;;;;;;8.61;100.00;101340.13;5014895;28;20064;-80
2022/09/20 05:46:41;;;;;;;11.18;4.85;;;;;;;8.63;100.00;101344.50;5020625;28;20065;-80
2022/09/20 05:49:19;;;;;;;13.30;5.35;;;;;;;8.62;100.00;101346.25;5016371;28;20045;-81
2022/09/20 05:52:27;;;;;;;8.27;4.45;;;;;;;8.63;100.00;101352.31;5028222;28;20038;-80
2022/09/20 05:55:27;;;;;;;15.80;5.47;;;;;;;8.64;100.00;101346.25;5009833;28;20080;-80
2022/09/20 05:58:09;;;;;;;10.27;3.78;;;;;;;8.62;100.00;101356.69;5007885;28;20049;-79
2022/09/20 06:00:51;;;;;;;8.73;3.97;;;;;;;8.61;100.00;101360.16;5010612;28;20041;-80
2022/09/20 06:03:36;;;;;;;9.02;4.05;;;;;;;8.65;100.00;101358.44;5008380;28;20056;-80
2022/09/20 06:06:52;;;;;;;13.07;4.97;;;;;;;8.69;100.00;101362.84;5006534;28;20525;-80
2022/09/20 06:09:47;;;;;;;8.80;3.92;;;;;;;8.69;100.00;101374.13;5024672;28;20305;-80
2022/09/20 06:12:51;;;;;;;18.08;4.78;;;;;;;8.73;100.00;101377.66;5008896;28;20113;-81
2022/09/20 06:15:36;;;;;;;9.60;4.05;;;;;;;8.76;100.00;101375.97;5003593;28;20049;-79
2022/09/20 06:18:24;;;;;;;14.82;4.25;;;;;;;8.77;100.00;101369.00;5010787;28;20069;-81
2022/09/20 06:21:13;;;;;;;8.60;4.45;;;;;;;8.82;100.00;101371.66;4985767;28;20132;-79
2022/09/20 06:23:39;;;;;;;10.68;4.32;;;;;;;8.80;100.00;101378.59;5003462;28;20511;-79
2022/09/20 06:26:17;;;;;;;13.00;4.63;;;;;;;8.78;100.00;101378.59;4991798;28;20073;-80
2022/09/20 06:28:53;;;;;;;11.00;3.83;;;;;;;8.82;100.00;101372.53;5005437;28;20045;-80
2022/09/20 06:31:20;;;;;;;10.25;4.93;;;;;;;8.89;100.00;101371.75;4985977;28;20046;-80
2022/09/20 06:33:58;;;;;;;10.68;4.28;;;;;;;9.02;100.00;101371.84;5005138;28;20413;-79
2022/09/20 06:42:43;;;;;;;12.27;4.57;;;;;;;9.23;100.00;101384.22;5010547;28;20033;-79
2022/09/20 06:45:10;;;;;;;10.25;3.03;;;;;;;9.27;100.00;101383.41;5017591;28;20424;-79
2022/09/20 06:47:36;;;;;;;7.45;3.47;;;;;;;9.25;100.00;101382.50;5002457;28;20072;-80
2022/09/20 06:50:04;;;;;;;6.35;2.70;;;;;;;9.26;100.00;101389.47;4999925;28;20069;-80
2022/09/20 06:52:31;;;;;;;7.10;3.00;;;;;;;9.25;100.00;101383.34;5015336;28;20464;-81
2022/09/20 06:54:59;;;;;;;6.03;2.72;;;;;;;9.26;100.00;101389.47;5011674;28;20041;-80
2022/09/20 06:57:44;;;;;;;7.82;2.65;;;;;;;9.35;100.00;101394.78;5025395;28;20088;-81
2022/09/20 07:00:14;;;;;;;8.82;2.95;;;;;;;9.39;100.00;101393.94;5016992;28;20045;-80
2022/09/20 07:02:43;;;;;;;11.75;2.95;;;;;;;9.42;100.00;101393.94;5022914;28;20400;-79
2022/09/20 07:05:20;;;;;;;5.25;2.28;;;;;;;9.44;100.00;101400.06;5020273;28;20049;-80
2022/09/20 07:07:49;;;;;;;5.00;2.47;;;;;;;9.44;100.00;101394.84;5005827;28;20571;-82
2022/09/20 07:10:15;;;;;;;5.03;2.17;;;;;;;9.38;100.00;101404.38;5020189;28;20481;-80
2022/09/20 07:12:42;;;;;;;7.35;2.90;;;;;;;9.33;100.00;101400.84;4995808;28;20049;-79
2022/09/20 07:15:09;;;;;;;7.03;3.22;;;;;;;9.29;100.00;101399.94;5005060;28;20061;-80
2022/09/20 07:17:36;;;;;;;9.68;4.28;;;;;;;9.32;100.00;101401.72;5020458;28;20073;-79
2022/09/20 07:20:03;;;;;;;5.97;2.83;;;;;;;9.38;100.00;101405.25;5021667;28;20121;-79
2022/09/20 07:22:32;;;;;;;6.68;3.20;;;;;;;9.66;100.00;101412.41;5020290;28;20675;-82
2022/09/20 07:25:01;;;;;;;10.50;3.63;;;;;;;10.05;100.00;101417.03;5019040;28;20069;-80
2022/09/20 07:27:29;;;;;;;10.35;4.03;;;;;;;10.49;100.00;101412.03;5016632;28;20447;-81
2022/09/20 07:29:56;;;;;;;10.98;3.58;;;;;;;10.93;100.00;101421.75;5006481;28;20096;-81
2022/09/20 07:32:25;;;;;;;7.97;3.58;;;;;;;11.67;100.00;101424.41;5019118;28;20034;-81
2022/09/20 07:34:51;;;;;;;9.55;3.17;;;;;;;12.50;100.00;101422.44;4999635;28;20141;-81
2022/09/20 07:37:18;;;;;;;12.38;4.20;;;;;;;13.06;100.00;101421.25;5017591;28;20512;-81
2022/09/20 07:39:48;;;;;;;6.05;3.05;;;;;;;13.21;99.18;101424.66;5023247;28;20049;-80
2022/09/20 07:42:18;;;;;;;15.65;3.08;;;;;;;12.99;97.37;101421.31;5016887;28;20041;-80
2022/09/20 07:44:46;;;;;;;10.55;5.28;;;;;;;12.74;99.40;101419.69;5022708;28;20050;-80
2022/09/20 07:47:14;;;;;;;6.47;3.60;;;;;;;12.51;100.00;101425.06;5024632;28;20054;-81
2022/09/20 07:49:43;;;;;;;10.70;4.65;;;;;;;12.27;100.00;101425.16;5003642;28;20507;-80
2022/09/20 07:52:10;;;;;;;11.95;4.43;;;;;;;12.10;100.00;101439.22;5004636;28;20046;-80
2022/09/20 07:54:36;;;;;;;7.38;3.28;;;;;;;11.94;100.00;101440.97;5022502;28;20111;-81
2022/09/20 07:57:05;;;;;;;7.07;2.85;;;;;;;11.83;100.00;101440.13;5019960;28;20051;-80
2022/09/20 07:59:33;;;;;;;10.65;4.18;;;;;;;11.71;100.00;101443.63;5009878;28;20081;-80
2022/09/20 08:02:01;;;;;;;6.50;3.65;;;;;;;11.70;100.00;101439.25;5021201;28;20048;-80
2022/09/20 08:04:28;;;;;;;7.78;5.00;;;;;;;11.76;100.00;101447.13;4988885;28;20060;-82
2022/09/20 08:06:55;;;;;;;5.80;3.58;;;;;;;11.86;100.00;101443.63;5020006;28;20060;-79
2022/09/20 08:09:23;;;;;;;9.02;3.80;;;;;;;11.94;100.00;101440.09;5008799;28;20528;-79
2022/09/20 08:11:50;;;;;;;10.75;3.10;;;;;;;11.91;100.00;101449.75;5034709;28;20464;-81
2022/09/20 08:14:18;;;;;;;12.02;3.85;;;;;;;12.22;100.00;101452.31;5024006;28;20052;-80
2022/09/20 08:16:48;;;;;;;6.10;2.80;;;;;;;13.27;98.81;101460.53;5008068;28;20489;-80
2022/09/20 08:19:23;;;;;;;4.28;2.38;;;;;;;14.52;86.54;101454.06;5006860;28;20037;-81
2022/09/20 08:21:53;;;;;;;4.82;2.03;;;;;;;15.45;81.29;101448.38;5026153;28;20140;-81
2022/09/20 08:24:25;;;;;;;4.28;2.00;;;;;;;16.63;77.78;101448.84;5022067;28;20042;-80
2022/09/20 08:26:52;;;;;;;3.25;1.45;;;;;;;16.66;72.65;101452.28;4992353;28;20049;-80
2022/09/20 08:29:19;;;;;;;5.75;1.27;;;;;;;16.24;74.03;101454.03;5027906;28;20045;-81
2022/09/20 08:31:46;;;;;;;3.47;1.95;;;;;;;15.71;76.34;101463.78;5015109;28;20160;-79
2022/09/20 08:34:17;;;;;;;8.27;1.83;;;;;;;15.24;77.08;101465.44;5014422;28;20476;-80
2022/09/20 08:36:50;;;;;;;6.38;1.73;;;;;;;14.74;79.53;101465.25;5038922;28;20408;-83
2022/09/20 08:39:18;;;;;;;4.05;2.15;;;;;;;14.52;80.19;101469.88;5035359;28;20093;-81
2022/09/20 08:42:18;;;;;;;3.10;1.60;;;;;;;14.10;82.83;101472.13;5015248;28;20528;-80
2022/09/20 08:45:03;;;;;;;6.80;2.38;;;;;;;13.84;84.71;101479.38;5009962;28;20042;-80
2022/09/20 08:47:47;;;;;;;5.78;2.42;;;;;;;13.76;83.67;101477.72;5027369;28;20045;-81
2022/09/20 08:50:15;;;;;;;6.53;2.42;;;;;;;13.47;85.76;101481.47;5008867;28;20183;-83
2022/09/20 08:52:53;;;;;;;7.40;2.63;;;;;;;13.34;85.92;101480.66;5026927;28;20999;-81
2022/09/20 08:55:26;;;;;;;6.38;2.60;;;;;;;13.10;87.96;101481.69;5021304;28;20053;-80
2022/09/20 08:57:58;;;;;;;5.25;1.58;;;;;;;13.02;88.71;101484.34;5008134;28;20073;-81
2022/09/20 09:00:33;;;;;;;9.30;3.00;;;;;;;12.91;88.38;101482.66;4996306;28;20099;-80
2022/09/20 09:03:16;;;;;;;4.60;2.10;;;;;;;12.82;88.39;101487.97;5008707;28;20060;-80
2022/09/20 09:05:50;;;;;;;4.55;2.20;;;;;;;12.70;90.12;101491.53;5023027;28;20042;-80
2022/09/20 09:08:21;;;;;;;4.90;1.73;;;;;;;12.56;90.50;101494.19;5033543;28;20111;-81
2022/09/20 09:10:57;;;;;;;3.80;2.00;;;;;;;12.40;91.86;101488.13;4998432;28;20182;-81
2022/09/20 09:14:03;;;;;;;3.63;1.42;;;;;;;12.31;93.60;101497.81;4999314;28;20046;-81
2022/09/20 09:16:34;;;;;;;2.42;1.48;;;;;;;12.41;93.59;101502.13;5020121;28;20064;-82
2022/09/20 09:19:29;;;;;;;5.78;1.95;;;;;;;12.54;93.19;101500.34;5004266;28;20057;-82
2022/09/20 09:22:00;;;;;;;6.55;1.70;;;;;;;12.62;92.62;101498.56;5018636;28;20080;-81
2022/09/20 09:24:28;;;;;;;4.82;1.40;;;;;;;12.66;92.30;101496.78;5033356;28;20339;-82
2022/09/20 09:27:15;;;;;;;2.70;1.60;;;;;;;12.86;92.11;101496.72;5023667;28;20045;-83
2022/09/20 09:29:56;;;;;;;5.53;2.17;;;;;;;13.06;90.44;101496.59;5007250;28;20133;-81
2022/09/20 09:32:36;;;;;;;3.55;1.30;;;;;;;13.24;89.10;101492.97;5009171;28;20080;-81
2022/09/20 09:35:37;;;;;;;4.03;1.92;;;;;;;13.50;86.32;101490.19;5014377;28;20057;-82
2022/09/20 09:38:05;;;;;;;8.30;2.00;;;;;;;13.59;85.92;101499.78;4969778;28;20401;-81
2022/09/20 09:40:33;;;;;;;2.92;1.00;;;;;;;13.87;84.61;101497.78;5003934;28;20113;-82
2022/09/20 09:43:03;;;;;;;4.13;1.23;;;;;;;14.11;83.36;101495.81;4990727;28;20679;-80
2022/09/20 09:45:37;;;;;;;5.65;1.85;;;;;;;14.35;81.22;101499.94;5006464;28;20391;-81
2022/09/20 09:48:22;;;;;;;1.85;0.82;;;;;;;14.75;79.50;101493.34;5008012;28;20053;-81
2022/09/20 09:51:14;;;;;;;4.00;1.25;;;;;;;14.86;76.82;101499.38;5020783;28;20381;-80
2022/09/20 09:53:43;;;;;;;6.65;1.77;;;;;;;14.79;76.64;101496.81;5006683;28;20125;-80
2022/09/20 09:56:50;;;;;;;4.60;1.38;;;;;;;15.15;75.07;101503.34;4990403;28;20053;-81
2022/09/20 09:59:38;;;;;;;5.40;1.17;;;;;;;16.24;71.22;101491.88;4995232;28;20057;-80
2022/09/20 10:02:40;;;;;;;1.42;0.70;;;;;;;17.08;67.22;101491.06;5005487;28;20057;-81
2022/09/20 10:05:41;;;;;;;3.20;0.98;;;;;;;17.61;64.67;101492.47;5008142;28;20045;-80
2022/09/20 10:08:34;;;;;;;2.95;0.98;;;;;;;18.63;59.26;101493.28;4992806;28;20057;-81
2022/09/20 10:11:25;;;;;;;4.22;1.35;;;;;;;19.91;59.58;101484.91;5015335;28;20049;-80
2022/09/20 10:14:38;;;;;;;4.88;1.20;;;;;;;22.48;49.41;101480.91;5006974;28;20042;-81
2022/09/20 10:17:46;;;;;;;3.55;0.90;;;;;;;24.07;45.42;101478.50;5020824;28;20062;-82
2022/09/20 10:21:08;;;;;;;5.60;1.17;;;;;;;23.16;43.78;101482.22;5004998;28;20057;-82
2022/09/20 10:24:00;;;;;;;1.73;0.88;;;;;;;21.57;46.71;101484.84;4986475;28;20050;-80
2022/09/20 10:27:02;;;;;;;3.92;0.85;;;;;;;19.99;50.94;101486.34;4994548;28;20064;-81
2022/09/20 10:30:19;;;;;;;3.92;1.33;;;;;;;19.55;53.14;101491.34;5005680;28;20077;-81
2022/09/20 10:33:11;;;;;;;5.57;1.73;;;;;;;18.72;54.21;101478.91;5005121;28;20045;-81
2022/09/20 10:36:34;;;;;;;7.35;1.13;;;;;;;17.66;57.50;101491.47;5002413;28;20464;-83
2022/09/20 10:39:14;;;;;;;3.50;0.63;;;;;;;17.57;59.48;101481.06;4978043;28;20057;-82
2022/09/20 10:45:35;;;;;;;2.83;0.85;;;;;;;19.42;52.73;101477.59;5022910;28;20108;-81
2022/09/20 10:48:35;;;;;;;5.65;0.73;;;;;;;18.74;54.30;101484.16;5006778;28;20216;-82
2022/09/20 10:51:34;;;;;;;2.42;1.40;;;;;;;18.00;56.37;101482.69;4987071;28;20053;-81
2022/09/20 10:54:21;;;;;;;5.47;0.73;;;;;;;17.45;56.69;101482.25;5013530;28;20087;-84
2022/09/20 10:57:01;;;;;;;2.90;0.80;;;;;;;16.87;60.13;101481.81;5011692;28;20110;-81
2022/09/20 10:59:54;;;;;;;1.55;0.60;;;;;;;16.34;62.73;101489.97;5001147;28;20041;-80
2022/09/20 11:02:40;;;;;;;2.50;0.50;;;;;;;16.47;62.43;101486.16;4999224;28;20077;-82
2022/09/20 11:05:26;;;;;;;2.53;0.90;;;;;;;16.89;59.30;101481.78;4997823;28;20104;-81
2022/09/20 11:08:17;;;;;;;1.20;0.85;;;;;;;16.65;60.01;101486.69;5018939;28;20045;-80
2022/09/20 11:10:55;;;;;;;2.35;0.85;;;;;;;16.45;60.90;101490.63;5007162;28;20041;-81
2022/09/20 11:13:45;;;;;;;3.60;0.85;;;;;;;17.76;58.43;101488.59;4993255;28;20096;-81
2022/09/20 11:16:40;;;;;;;1.15;0.65;;;;;;;21.12;47.51;101481.31;4981775;28;20049;-80
2022/09/20 11:20:03;;;;;;;4.10;0.60;;;;;;;23.29;40.53;101470.84;4996309;28;20053;-81
2022/09/20 11:23:16;;;;;;;2.17;0.82;;;;;;;25.27;37.24;101472.88;4995068;28;20111;-80
2022/09/20 11:26:20;;;;;;;4.32;0.70;;;;;;;26.82;35.66;101472.44;5007150;28;20103;-82
2022/09/20 11:28:59;;;;;;;1.48;0.43;;;;;;;27.96;34.22;101469.34;5023928;28;20095;-81
2022/09/20 11:31:44;;;;;;;2.95;0.40;;;;;;;28.45;32.30;101478.50;4998606;28;20083;-82
2022/09/20 11:34:32;;;;;;;2.00;0.73;;;;;;;28.17;30.21;101468.84;5020479;28;20045;-83
2022/09/20 11:37:02;;;;;;;1.08;0.60;;;;;;;28.02;33.06;101479.72;4993764;28;20053;-82
2022/09/20 11:39:34;;;;;;;1.45;0.38;;;;;;;28.60;30.85;101476.53;5002252;28;20112;-82
2022/09/20 11:42:04;;;;;;;2.00;0.77;;;;;;;28.87;32.72;101473.69;4999095;28;20049;-82
2022/09/20 11:44:41;;;;;;;2.13;0.50;;;;;;;29.86;29.55;101479.75;4999733;28;20052;-82
2022/09/20 11:47:19;;;;;;;2.15;0.65;;;;;;;30.19;28.91;101478.13;5004385;28;20049;-83
2022/09/20 11:50:08;;;;;;;2.85;1.23;;;;;;;30.43;27.76;101484.34;5002029;28;20045;-82
2022/09/20 11:53:00;;;;;;;2.90;0.73;;;;;;;30.38;26.96;101481.16;4998315;28;20060;-82
2022/09/20 11:55:43;;;;;;;2.25;0.70;;;;;;;30.08;27.45;101485.31;4988503;28;20049;-81
2022/09/20 11:58:14;;;;;;;2.17;0.50;;;;;;;30.68;27.40;101477.88;5006807;28;20512;-83
2022/09/20 12:00:45;;;;;;;2.00;0.60;;;;;;;30.95;26.34;101479.28;4993340;28;20045;-82
2022/09/20 12:03:38;;;;;;;1.95;0.50;;;;;;;30.34;25.08;101477.88;5007962;28;20738;-84
2022/09/20 12:06:26;;;;;;;4.35;0.73;;;;;;;30.31;25.17;101478.97;5013491;28;20048;-82
2022/09/20 12:08:53;;;;;;;2.78;0.63;;;;;;;30.45;27.14;101477.00;5019727;28;20061;-81
2022/09/20 12:11:34;;;;;;;1.83;0.65;;;;;;;31.21;25.70;101482.56;5004137;28;20042;-82
2022/09/20 12:14:08;;;;;;;6.03;3.25;;;;;;;31.73;23.94;101477.28;5006949;28;20046;-83
2022/09/20 12:16:44;;;;;;;2.00;0.90;;;;;;;29.60;25.96;101481.78;5007311;28;20072;-81
2022/09/20 12:19:38;;;;;;;1.92;1.05;;;;;;;27.28;29.63;101487.38;5007531;28;20037;-83
2022/09/20 12:22:06;;;;;;;3.88;0.70;;;;;;;24.53;33.74;101493.91;4995531;28;20148;-83
2022/09/20 12:24:39;;;;;;;2.47;0.60;;;;;;;22.86;36.44;101493.41;5002491;28;20053;-83
2022/09/20 12:27:14;;;;;;;;;;;;;;;23.22;35.74;101498.81;5005642;28;20061;-82
2022/09/20 12:30:21;;;;;;;1.20;1.00;;;;;;;25.25;33.86;101485.47;5023826;28;20016;-82
2022/09/20 12:32:56;;;;;;;2.20;0.57;;;;;;;26.41;30.48;101487.53;4991038;28;20279;-81
2022/09/20 12:36:04;;;;;;;1.73;0.50;;;;;;;27.20;29.67;101495.94;4988647;28;20045;-82
2022/09/20 12:38:33;;;;;;;3.05;0.60;;;;;;;26.72;30.74;101496.34;4977405;28;20152;-82
2022/09/20 12:41:14;;;;;;;0.55;0.20;;;;;;;25.34;32.25;101492.13;4993702;28;20049;-82
2022/09/20 12:44:02;;;;;;;2.33;0.43;;;;;;;26.15;31.79;101490.97;5024730;28;20115;-82
2022/09/20 12:46:54;;;;;;;1.02;0.70;;;;;;;26.57;31.09;101492.78;4996220;28;20061;-82
2022/09/20 12:55:53;;;;;;;1.27;0.30;;;;;;;22.82;37.19;101492.66;5005905;28;20132;-81
2022/09/20 12:59:04;;;;;;;2.42;0.57;;;;;;;23.81;35.17;101489.69;5010004;28;20068;-82
2022/09/20 13:01:35;;;;;;;3.47;0.80;;;;;;;25.73;33.10;101488.94;4903893;29;20091;-81